Time;durP1;ratioP1;P1;durP2;ratioP2;P2;SDS_P1;SDS_P2;PMS_P1;PMS_P2;Temp;Humidity;BMP_temperature;BMP_pressure;BME280_temperature;BME280_humidity;BME280_pressure;Samples;Min_cycle;Max_cycle;Signal;HPM_P1;HPM_P2
2022/02/14 00:00:47;;;;;;;7.00;4.17;;;7.40;95.80;;;;;;5040068;28;20956;-70
2022/02/14 00:03:12;;;;;;;4.53;4.00;;;7.40;95.70;;;;;;5030084;28;20233;-73
2022/02/14 00:05:38;;;;;;;5.67;4.33;;;7.40;95.70;;;;;;5034932;28;20447;-70
2022/02/14 00:08:04;;;;;;;4.50;4.10;;;7.40;95.50;;;;;;5030067;28;20195;-72
2022/02/14 00:10:30;;;;;;;3.50;3.20;;;7.40;95.80;;;;;;5027575;28;20182;-72
2022/02/14 00:12:56;;;;;;;4.80;4.00;;;7.40;95.50;;;;;;5040656;28;20421;-69
2022/02/14 00:15:21;;;;;;;4.90;3.50;;;7.50;95.50;;;;;;5045240;28;20267;-70
2022/02/14 00:17:47;;;;;;;6.00;4.30;;;7.60;95.60;;;;;;5069398;22;20232;-70
2022/02/14 00:20:13;;;;;;;4.50;4.03;;;7.60;95.40;;;;;;5045341;28;20263;-69
2022/02/14 00:22:40;;;;;;;4.63;3.83;;;7.70;95.00;;;;;;5044130;28;20288;-69
2022/02/14 00:25:06;;;;;;;4.47;4.07;;;7.70;95.00;;;;;;5044141;28;20790;-69
2022/02/14 00:27:32;;;;;;;4.17;3.63;;;7.70;94.90;;;;;;5044784;28;20434;-69
2022/02/14 00:29:58;;;;;;;5.30;3.93;;;7.70;95.10;;;;;;5045486;28;20412;-69
2022/02/14 00:32:24;;;;;;;5.53;4.30;;;7.70;94.80;;;;;;5046160;28;20434;-70
2022/02/14 00:34:51;;;;;;;8.43;4.83;;;7.80;94.60;;;;;;5045605;28;20413;-69
2022/02/14 00:37:17;;;;;;;5.90;4.17;;;7.90;94.70;;;;;;5045469;28;20198;-69
2022/02/14 00:39:43;;;;;;;4.63;4.00;;;7.90;94.60;;;;;;5027251;28;20417;-69
2022/02/14 00:42:09;;;;;;;5.10;4.10;;;7.90;94.30;;;;;;5044401;28;20451;-71
2022/02/14 00:44:35;;;;;;;5.10;4.60;;;7.90;94.40;;;;;;5045531;28;20419;-69
2022/02/14 00:47:00;;;;;;;5.17;4.27;;;7.90;94.10;;;;;;5027781;28;20232;-69
2022/02/14 00:49:26;;;;;;;6.87;3.80;;;7.90;94.00;;;;;;5028492;28;20176;-69
2022/02/14 00:51:52;;;;;;;4.13;3.70;;;7.90;93.90;;;;;;5026891;28;20313;-70
2022/02/14 00:54:18;;;;;;;4.60;3.53;;;8.00;93.80;;;;;;5045182;28;20744;-69
2022/02/14 00:56:43;;;;;;;3.53;3.23;;;8.00;93.60;;;;;;5043749;28;20347;-70
2022/02/14 00:59:09;;;;;;;5.40;3.87;;;8.10;93.40;;;;;;5045393;28;20176;-69
2022/02/14 01:01:34;;;;;;;3.70;3.40;;;8.10;93.30;;;;;;5044265;28;20201;-69
2022/02/14 01:04:00;;;;;;;5.47;4.20;;;8.20;93.30;;;;;;5044075;28;20181;-71
2022/02/14 01:06:26;;;;;;;6.17;3.80;;;8.20;93.40;;;;;;5026586;28;20188;-69
2022/02/14 01:08:53;;;;;;;3.80;3.03;;;8.10;92.70;;;;;;5044897;28;20200;-70
2022/02/14 01:11:19;;;;;;;7.83;3.80;;;8.20;92.80;;;;;;5044267;28;20422;-69
2022/02/14 01:13:45;;;;;;;6.33;3.57;;;8.20;92.60;;;;;;5044076;28;20951;-68
2022/02/14 01:16:10;;;;;;;4.20;3.30;;;8.10;92.10;;;;;;5044521;28;20413;-69
2022/02/14 01:18:36;;;;;;;7.13;4.33;;;8.20;92.10;;;;;;5044425;28;20302;-69
2022/02/14 01:21:02;;;;;;;4.30;3.07;;;8.10;92.00;;;;;;5026727;28;20698;-69
2022/02/14 01:23:27;;;;;;;3.70;3.40;;;8.20;92.00;;;;;;5044414;28;20180;-69
2022/02/14 01:25:53;;;;;;;5.50;3.67;;;8.20;91.50;;;;;;5043170;28;20533;-69
2022/02/14 01:28:19;;;;;;;8.13;3.87;;;8.20;91.50;;;;;;5044509;28;20274;-69
2022/02/14 01:30:44;;;;;;;5.00;3.60;;;8.20;91.60;;;;;;5043990;28;20189;-69
2022/02/14 01:33:10;;;;;;;4.00;3.37;;;8.30;91.30;;;;;;5044273;28;20880;-69
2022/02/14 01:35:36;;;;;;;6.33;3.67;;;8.20;91.30;;;;;;5043672;28;20182;-69
2022/02/14 01:38:02;;;;;;;4.63;3.20;;;8.10;91.00;;;;;;5044312;28;20195;-69
2022/02/14 01:40:28;;;;;;;8.80;3.60;;;8.20;90.90;;;;;;5043311;28;20168;-70
2022/02/14 01:42:54;;;;;;;4.00;3.07;;;8.20;90.20;;;;;;5044197;28;20455;-68
2022/02/14 01:45:19;;;;;;;4.10;3.00;;;8.30;90.10;;;;;;5044352;28;21280;-69
2022/02/14 01:47:45;;;;;;;3.90;3.30;;;8.30;90.10;;;;;;5043991;28;20432;-69
2022/02/14 01:50:14;;;;;;;5.40;3.53;;;8.30;90.40;;;;;;5043725;28;20255;-69
2022/02/14 01:52:40;;;;;;;3.27;2.97;;;8.20;89.80;;;;;;5044104;28;20182;-70
2022/02/14 01:55:08;;;;;;;3.90;3.10;;;8.20;89.50;;;;;;5043267;28;20898;-70
2022/02/14 01:57:35;;;;;;;4.50;2.70;;;8.20;88.60;;;;;;5043796;28;20471;-68
2022/02/14 02:00:06;;;;;;;3.60;3.30;;;8.20;89.00;;;;;;5042283;28;20457;-69
2022/02/14 02:02:32;;;;;;;5.00;2.97;;;8.20;88.50;;;;;;5042428;28;20605;-69
2022/02/14 02:04:58;;;;;;;3.83;3.47;;;8.30;88.10;;;;;;5043997;28;20420;-69
2022/02/14 02:07:23;;;;;;;3.53;2.90;;;8.30;86.60;;;;;;5042981;28;20187;-70
2022/02/14 02:09:49;;;;;;;3.77;3.00;;;8.30;86.50;;;;;;5043547;28;20720;-69
2022/02/14 02:12:24;;;;;;;5.63;2.70;;;8.40;86.90;;;;;;5042808;28;20255;-69
2022/02/14 02:15:02;;;;;;;3.50;2.83;;;8.40;86.50;;;;;;5041880;28;20183;-70
2022/02/14 02:17:36;;;;;;;4.60;3.10;;;8.50;86.80;;;;;;5043471;28;20459;-69
2022/02/14 02:20:05;;;;;;;3.40;3.10;;;8.40;86.70;;;;;;5042665;28;20416;-69
2022/02/14 02:22:30;;;;;;;4.13;3.17;;;8.40;86.30;;;;;;5043303;28;20447;-69
2022/02/14 02:24:57;;;;;;;7.47;2.97;;;8.40;86.50;;;;;;5042723;28;20989;-69
2022/02/14 02:27:27;;;;;;;6.03;2.77;;;8.40;86.40;;;;;;5043197;28;20209;-69
2022/02/14 02:29:54;;;;;;;4.73;2.90;;;8.30;86.40;;;;;;5043571;28;20450;-70
2022/02/14 02:32:20;;;;;;;3.90;2.70;;;8.30;86.30;;;;;;5042369;28;20434;-70
2022/02/14 02:34:46;;;;;;;4.10;3.20;;;8.30;86.20;;;;;;5043534;28;20411;-69
2022/02/14 02:37:14;;;;;;;2.87;2.50;;;8.40;86.20;;;;;;5043631;28;20213;-69
2022/02/14 02:39:41;;;;;;;6.70;2.87;;;8.40;85.90;;;;;;5043277;28;20256;-69
2022/02/14 02:42:07;;;;;;;3.90;2.60;;;8.30;85.80;;;;;;5032827;28;20963;-70
2022/02/14 02:44:34;;;;;;;3.47;2.60;;;8.40;85.00;;;;;;5043728;28;20521;-71
2022/02/14 02:47:00;;;;;;;3.23;2.50;;;8.40;86.20;;;;;;5042965;28;21129;-70
2022/02/14 02:49:27;;;;;;;2.57;2.37;;;8.40;85.00;;;;;;5043419;28;20771;-70
2022/02/14 02:51:53;;;;;;;2.30;2.10;;;8.50;85.70;;;;;;5043303;28;20835;-70
2022/02/14 02:54:21;;;;;;;4.07;2.73;;;8.50;84.60;;;;;;5043517;28;20416;-70
2022/02/14 02:56:49;;;;;;;4.30;3.10;;;8.60;84.70;;;;;;5042868;28;20711;-70
2022/02/14 02:59:16;;;;;;;4.57;2.53;;;8.50;84.30;;;;;;5043127;28;20438;-70
2022/02/14 03:01:42;;;;;;;3.10;2.80;;;8.40;84.30;;;;;;5042084;28;20550;-70
2022/02/14 03:04:10;;;;;;;3.67;2.67;;;8.40;84.30;;;;;;5043354;28;20499;-69
2022/02/14 03:06:37;;;;;;;2.43;2.23;;;8.40;84.70;;;;;;5042201;28;20960;-70
2022/02/14 03:09:03;;;;;;;3.80;2.70;;;8.30;84.70;;;;;;5043278;28;21546;-70
2022/02/14 03:11:29;;;;;;;3.23;2.43;;;8.20;84.50;;;;;;5042216;28;20446;-69
2022/02/14 03:13:55;;;;;;;4.33;2.97;;;8.20;84.70;;;;;;5043069;28;20418;-70
2022/02/14 03:16:21;;;;;;;3.13;2.77;;;8.10;84.70;;;;;;5042746;28;20185;-70
2022/02/14 03:18:48;;;;;;;2.50;2.30;;;8.20;85.20;;;;;;5042545;28;20477;-69
2022/02/14 03:21:14;;;;;;;2.83;2.50;;;8.20;85.00;;;;;;5028804;28;20503;-69
2022/02/14 03:23:40;;;;;;;5.80;2.60;;;8.30;85.50;;;;;;5046800;28;20494;-69
2022/02/14 03:26:07;;;;;;;3.57;3.20;;;8.10;85.40;;;;;;5045489;28;20176;-70
2022/02/14 03:28:33;;;;;;;2.60;2.40;;;8.00;85.80;;;;;;5028798;28;20484;-69
2022/02/14 03:31:00;;;;;;;3.40;2.37;;;7.90;85.50;;;;;;5046325;28;20427;-69
2022/02/14 03:33:26;;;;;;;4.70;3.10;;;7.90;86.20;;;;;;5046606;28;20417;-69
2022/02/14 03:35:52;;;;;;;3.47;2.53;;;7.90;85.70;;;;;;5045740;28;20425;-69
2022/02/14 03:38:18;;;;;;;3.40;2.70;;;7.80;85.40;;;;;;5028242;28;20455;-70
2022/02/14 03:40:43;;;;;;;4.57;3.07;;;7.80;85.50;;;;;;5046570;28;20762;-70
2022/02/14 03:43:12;;;;;;;6.80;3.07;;;7.80;85.60;;;;;;5045403;28;20515;-70
2022/02/14 03:45:40;;;;;;;2.77;2.47;;;7.80;86.20;;;;;;5046376;28;20213;-70
2022/02/14 03:48:06;;;;;;;3.43;2.70;;;7.70;85.50;;;;;;5046363;28;20572;-69
2022/02/14 03:50:32;;;;;;;4.50;3.13;;;7.70;85.60;;;;;;5046394;28;20940;-69
2022/02/14 03:52:57;;;;;;;3.50;2.70;;;7.80;85.00;;;;;;5046315;28;20410;-70
2022/02/14 03:55:23;;;;;;;4.23;2.90;;;7.70;84.10;;;;;;5046048;28;20666;-69
2022/02/14 03:57:52;;;;;;;2.97;2.40;;;7.80;84.40;;;;;;5044880;28;20223;-70
2022/02/14 04:00:20;;;;;;;2.50;2.17;;;7.80;84.90;;;;;;5028250;28;20180;-69
2022/02/14 04:02:46;;;;;;;4.50;2.80;;;7.90;84.50;;;;;;5045402;28;20464;-70
2022/02/14 04:05:13;;;;;;;4.50;2.80;;;7.90;85.00;;;;;;5045259;28;20461;-70
2022/02/14 04:07:39;;;;;;;3.87;2.57;;;7.90;85.80;;;;;;5045920;28;20458;-70
2022/02/14 04:10:07;;;;;;;5.20;4.70;;;7.70;86.80;;;;;;5046040;28;20417;-69
2022/02/14 04:12:33;;;;;;;4.20;3.53;;;7.70;87.20;;;;;;5027865;28;20462;-70
2022/02/14 04:14:58;;;;;;;4.90;3.90;;;7.70;87.50;;;;;;5028019;28;20414;-69
2022/02/14 04:17:25;;;;;;;5.93;4.70;;;7.70;88.00;;;;;;5045211;28;20641;-70
2022/02/14 04:19:54;;;;;;;6.90;5.70;;;7.80;89.20;;;;;;5045859;28;20179;-70
2022/02/14 04:22:20;;;;;;;8.77;6.60;;;7.70;88.70;;;;;;5045855;28;20468;-70
2022/02/14 04:24:46;;;;;;;4.97;4.47;;;7.60;89.20;;;;;;5046077;28;20473;-69
2022/02/14 04:27:13;;;;;;;6.60;5.90;;;7.60;90.00;;;;;;5044329;28;20545;-70
2022/02/14 04:29:39;;;;;;;6.63;5.40;;;7.60;90.50;;;;;;5046006;28;20410;-70
2022/02/14 04:32:05;;;;;;;7.07;5.20;;;7.50;90.60;;;;;;5026867;28;20416;-69
2022/02/14 04:34:30;;;;;;;3.50;3.20;;;7.30;91.80;;;;;;5045138;28;20789;-69
2022/02/14 04:36:56;;;;;;;6.70;5.07;;;7.20;92.40;;;;;;5044082;28;20425;-69
2022/02/14 04:39:21;;;;;;;5.10;3.50;;;7.10;92.50;;;;;;5045564;28;20186;-70
2022/02/14 04:41:47;;;;;;;4.40;3.20;;;6.90;93.30;;;;;;5045239;28;20737;-69
2022/02/14 04:44:13;;;;;;;5.30;3.60;;;6.90;93.90;;;;;;5045442;28;20187;-69
2022/02/14 04:46:39;;;;;;;4.77;3.20;;;6.80;94.20;;;;;;5045276;28;20919;-70
2022/02/14 04:49:05;;;;;;;4.00;3.60;;;6.70;94.70;;;;;;5045170;28;20429;-69
2022/02/14 04:51:31;;;;;;;4.90;3.60;;;6.60;95.00;;;;;;5044093;28;20176;-69
2022/02/14 04:53:57;;;;;;;3.70;2.90;;;6.40;95.30;;;;;;5044931;28;20818;-69
2022/02/14 04:56:23;;;;;;;4.87;3.60;;;6.40;95.70;;;;;;5026887;28;20187;-69
2022/02/14 04:58:49;;;;;;;4.17;3.40;;;6.40;96.00;;;;;;5026883;28;20665;-69
2022/02/14 05:01:15;;;;;;;4.97;3.10;;;6.40;96.40;;;;;;5027248;28;21068;-70
2022/02/14 05:03:41;;;;;;;3.20;2.90;;;6.30;96.60;;;;;;5044995;28;20411;-69
2022/02/14 05:06:07;;;;;;;4.23;3.03;;;6.40;96.60;;;;;;5044569;28;20471;-69
2022/02/14 05:08:33;;;;;;;3.13;2.70;;;6.30;96.80;;;;;;5044925;28;20429;-68
2022/02/14 05:10:59;;;;;;;3.77;3.17;;;6.40;97.10;;;;;;5044349;28;20447;-69
2022/02/14 05:13:25;;;;;;;4.27;2.73;;;6.30;97.20;;;;;;5043579;28;20421;-69
2022/02/14 05:15:51;;;;;;;3.47;2.70;;;6.30;97.20;;;;;;5044547;28;20405;-70
2022/02/14 05:18:17;;;;;;;2.80;2.50;;;6.20;97.00;;;;;;5025421;28;20207;-70
2022/02/14 05:20:42;;;;;;;3.53;2.40;;;6.20;96.80;;;;;;5044594;28;20665;-70
2022/02/14 05:23:09;;;;;;;4.47;3.10;;;6.30;97.00;;;;;;5042583;28;20458;-70
2022/02/14 05:25:35;;;;;;;5.70;2.37;;;6.30;96.60;;;;;;5044016;28;20269;-70
2022/02/14 05:28:09;;;;;;;5.50;2.60;;;6.20;96.40;;;;;;5044205;28;20543;-69
2022/02/14 05:30:35;;;;;;;5.27;2.80;;;6.30;96.10;;;;;;5044609;28;20401;-69
2022/02/14 05:33:01;;;;;;;5.80;3.23;;;6.30;95.90;;;;;;5042929;28;20435;-69
2022/02/14 05:35:27;;;;;;;2.87;2.30;;;6.40;95.90;;;;;;5044532;28;20467;-69
2022/02/14 05:37:53;;;;;;;2.47;2.27;;;6.30;95.40;;;;;;5043076;28;20453;-69
2022/02/14 05:40:19;;;;;;;4.37;2.57;;;6.40;95.50;;;;;;5042900;28;20419;-69
2022/02/14 05:42:45;;;;;;;8.13;3.17;;;6.40;95.50;;;;;;5042992;28;20496;-69
2022/02/14 05:45:10;;;;;;;3.10;2.00;;;6.30;95.80;;;;;;5044139;28;20692;-70
2022/02/14 05:47:36;;;;;;;4.77;2.67;;;6.40;95.80;;;;;;5042919;28;20196;-69
2022/02/14 05:50:03;;;;;;;4.70;2.63;;;6.40;95.70;;;;;;5043803;28;20188;-69
2022/02/14 05:52:28;;;;;;;4.80;2.93;;;6.30;95.60;;;;;;5044091;28;20412;-69
2022/02/14 05:54:55;;;;;;;5.40;3.10;;;6.20;95.80;;;;;;5043898;28;20421;-68
2022/02/14 05:57:21;;;;;;;5.20;4.07;;;6.30;96.00;;;;;;5043356;28;20209;-69
2022/02/14 05:59:47;;;;;;;9.07;3.80;;;6.30;96.20;;;;;;5043441;28;20417;-68
2022/02/14 06:02:13;;;;;;;6.73;4.30;;;6.20;96.30;;;;;;5043166;28;20517;-69
2022/02/14 06:04:39;;;;;;;5.77;3.87;;;6.20;95.90;;;;;;5042926;28;20174;-68
2022/02/14 06:07:05;;;;;;;6.07;4.60;;;6.20;96.00;;;;;;5040697;28;20633;-68
2022/02/14 06:09:30;;;;;;;7.80;4.33;;;6.30;96.10;;;;;;5042633;28;20257;-70
2022/02/14 06:11:57;;;;;;;5.50;3.87;;;6.30;95.80;;;;;;5043579;28;20178;-70
2022/02/14 06:14:23;;;;;;;6.00;3.73;;;6.40;96.10;;;;;;5042910;28;20214;-70
2022/02/14 06:16:49;;;;;;;3.77;3.47;;;6.40;96.20;;;;;;5043614;28;20428;-69
2022/02/14 06:19:15;;;;;;;5.33;3.60;;;6.40;96.30;;;;;;5043776;28;20452;-68
2022/02/14 06:21:41;;;;;;;4.03;3.07;;;6.40;96.00;;;;;;5043461;28;20497;-68
2022/02/14 06:24:06;;;;;;;5.07;3.90;;;6.40;96.00;;;;;;5043029;28;20429;-68
2022/02/14 06:26:32;;;;;;;6.00;4.87;;;6.50;95.90;;;;;;5043712;28;20424;-69
2022/02/14 06:29:02;;;;;;;6.00;3.80;;;6.50;95.70;;;;;;5030363;28;20296;-69
2022/02/14 06:31:29;;;;;;;4.70;3.67;;;6.50;95.70;;;;;;5043120;28;20183;-69
2022/02/14 06:33:55;;;;;;;4.30;3.80;;;6.60;95.20;;;;;;5042108;28;20440;-70
2022/02/14 06:36:23;;;;;;;3.17;2.87;;;6.60;95.20;;;;;;5043323;28;20503;-70
2022/02/14 06:38:50;;;;;;;3.93;3.20;;;6.60;94.30;;;;;;5043248;28;20827;-70
2022/02/14 06:41:15;;;;;;;4.57;3.83;;;6.70;94.50;;;;;;5043568;28;20502;-70
2022/02/14 06:43:41;;;;;;;5.77;3.30;;;6.70;94.70;;;;;;5042305;28;20476;-70
2022/02/14 06:46:07;;;;;;;4.33;3.50;;;6.70;94.20;;;;;;5043452;28;20179;-70
2022/02/14 06:48:33;;;;;;;5.37;2.90;;;6.80;94.40;;;;;;5042797;28;20425;-70
2022/02/14 06:50:59;;;;;;;6.43;3.40;;;6.80;94.20;;;;;;5042875;28;20440;-70
2022/02/14 06:53:25;;;;;;;10.90;3.40;;;6.70;94.40;;;;;;5043924;28;20212;-68
2022/02/14 06:55:52;;;;;;;5.83;3.20;;;6.80;94.60;;;;;;5046695;28;20171;-70
2022/02/14 06:58:17;;;;;;;4.77;3.50;;;6.80;94.20;;;;;;5047423;28;20509;-70
2022/02/14 07:00:43;;;;;;;3.83;2.20;;;6.70;93.90;;;;;;5047126;28;20503;-70
2022/02/14 07:03:10;;;;;;;3.63;2.37;;;6.70;93.70;;;;;;5045697;28;20709;-68
2022/02/14 07:05:36;;;;;;;3.63;3.13;;;6.80;93.80;;;;;;5047065;28;20215;-68
2022/02/14 07:08:03;;;;;;;13.97;3.77;;;6.80;93.90;;;;;;5046412;28;20441;-70
2022/02/14 07:10:29;;;;;;;6.23;3.57;;;6.80;94.10;;;;;;5045939;28;20198;-69
2022/02/14 07:12:55;;;;;;;7.13;3.60;;;6.80;94.00;;;;;;5046633;28;20417;-69
2022/02/14 07:15:21;;;;;;;6.70;3.10;;;6.80;93.60;;;;;;5046768;28;20597;-69
2022/02/14 07:17:48;;;;;;;4.07;3.10;;;6.90;94.20;;;;;;5046473;28;20547;-69
2022/02/14 07:20:14;;;;;;;13.03;3.20;;;6.90;93.20;;;;;;5028573;28;20429;-69
2022/02/14 07:22:40;;;;;;;2.93;2.63;;;7.00;93.50;;;;;;5046747;28;20592;-69
2022/02/14 07:25:07;;;;;;;5.87;3.20;;;6.90;93.30;;;;;;5046048;28;20469;-70
2022/02/14 07:27:36;;;;;;;5.33;3.20;;;6.90;94.60;;;;;;5046326;28;20207;-70
2022/02/14 07:30:07;;;;;;;8.80;3.83;;;6.90;95.10;;;;;;5045780;28;20455;-69
2022/02/14 07:32:33;;;;;;;5.07;2.80;;;6.80;95.30;;;;;;5046711;28;20925;-69
2022/02/14 07:34:59;;;;;;;12.73;3.80;;;6.80;95.50;;;;;;5045407;28;20440;-69
2022/02/14 07:37:26;;;;;;;6.73;3.33;;;6.80;95.70;;;;;;5028260;28;20252;-69
2022/02/14 07:39:52;;;;;;;12.47;4.13;;;6.80;95.50;;;;;;5045544;28;20421;-69
2022/02/14 07:42:17;;;;;;;11.63;3.20;;;6.70;96.00;;;;;;5046134;28;20465;-70
2022/02/14 07:44:43;;;;;;;9.57;3.10;;;6.70;96.40;;;;;;5045994;28;21017;-69
2022/02/14 07:47:09;;;;;;;6.20;3.40;;;6.70;96.60;;;;;;5046254;28;20205;-69
2022/02/14 07:49:35;;;;;;;7.20;2.90;;;6.60;96.80;;;;;;5045840;28;20500;-70
2022/02/14 07:52:00;;;;;;;10.30;3.87;;;6.60;97.00;;;;;;5046285;28;20191;-69
2022/02/14 07:54:26;;;;;;;4.20;2.70;;;6.70;96.90;;;;;;5045752;28;20214;-70
2022/02/14 07:56:51;;;;;;;8.93;3.30;;;6.70;96.90;;;;;;5044439;28;20538;-70
2022/02/14 07:59:17;;;;;;;5.00;2.93;;;6.80;97.20;;;;;;5045964;28;20328;-69
2022/02/14 08:01:43;;;;;;;4.43;2.63;;;6.80;97.30;;;;;;5027354;28;20199;-70
2022/02/14 08:04:09;;;;;;;8.90;3.67;;;6.90;97.50;;;;;;5045010;28;20420;-69
2022/02/14 08:06:37;;;;;;;3.30;2.60;;;7.10;97.40;;;;;;5044000;28;20182;-70
2022/02/14 08:09:03;;;;;;;3.50;2.40;;;7.20;97.40;;;;;;5045711;28;20195;-69
2022/02/14 08:11:30;;;;;;;5.40;2.87;;;7.30;97.40;;;;;;5045681;28;20441;-70
2022/02/14 08:13:56;;;;;;;5.60;3.07;;;7.40;97.30;;;;;;5028454;28;20781;-69
2022/02/14 08:16:21;;;;;;;5.93;3.00;;;7.40;97.30;;;;;;5045667;28;20425;-69
2022/02/14 08:18:47;;;;;;;6.77;3.37;;;7.30;97.40;;;;;;5044972;28;20226;-69
2022/02/14 08:21:12;;;;;;;4.57;3.07;;;7.40;97.60;;;;;;5045714;28;20209;-69
2022/02/14 08:23:38;;;;;;;4.80;2.60;;;7.40;97.40;;;;;;5044309;28;20274;-70
2022/02/14 08:26:03;;;;;;;3.33;2.40;;;7.60;97.30;;;;;;5045756;28;20185;-69
2022/02/14 08:28:29;;;;;;;5.60;3.10;;;7.80;96.90;;;;;;5044657;28;20203;-70
2022/02/14 08:30:55;;;;;;;7.17;3.23;;;8.00;96.90;;;;;;5040586;28;20184;-69
2022/02/14 08:33:20;;;;;;;3.23;2.60;;;8.00;96.90;;;;;;5031287;28;20234;-70
2022/02/14 08:35:46;;;;;;;6.60;3.17;;;8.10;96.50;;;;;;5044343;28;20187;-70
2022/02/14 08:38:12;;;;;;;6.50;3.70;;;7.80;96.60;;;;;;5045355;28;20231;-70
2022/02/14 08:40:38;;;;;;;3.17;2.70;;;7.90;96.80;;;;;;5045208;28;20446;-71
2022/02/14 08:43:04;;;;;;;3.90;2.80;;;8.20;96.30;;;;;;5026716;28;20200;-70
2022/02/14 08:45:33;;;;;;;4.97;2.97;;;8.40;96.20;;;;;;5047095;28;20521;-70
2022/02/14 08:48:00;;;;;;;3.23;2.70;;;8.60;96.00;;;;;;5045089;28;20432;-70
2022/02/14 08:50:26;;;;;;;5.67;3.03;;;8.70;95.80;;;;;;5045082;28;20416;-69
2022/02/14 08:52:52;;;;;;;8.33;2.50;;;8.80;95.30;;;;;;5044603;28;20421;-69
2022/02/14 08:55:17;;;;;;;5.83;2.97;;;8.80;94.90;;;;;;5045316;28;20546;-70
2022/02/14 08:57:44;;;;;;;5.47;3.00;;;8.90;94.90;;;;;;5043909;28;20198;-70
2022/02/14 09:00:11;;;;;;;7.83;3.13;;;9.10;93.70;;;;;;5045071;28;20175;-71
2022/02/14 09:02:37;;;;;;;3.83;3.27;;;9.20;93.10;;;;;;5044731;28;20556;-70
2022/02/14 09:05:03;;;;;;;6.27;3.73;;;9.20;92.50;;;;;;5043841;28;21273;-71
2022/02/14 09:07:28;;;;;;;4.10;2.90;;;9.60;92.60;;;;;;5044792;28;20201;-69
2022/02/14 09:09:54;;;;;;;6.70;3.37;;;9.90;91.90;;;;;;5043857;28;20180;-70
2022/02/14 09:12:22;;;;;;;5.20;3.10;;;10.10;91.50;;;;;;5044847;28;20182;-70
2022/02/14 09:14:48;;;;;;;4.80;2.60;;;10.20;90.50;;;;;;5044384;28;20182;-70
2022/02/14 09:17:14;;;;;;;5.97;3.30;;;10.50;90.10;;;;;;5043974;28;20468;-70
2022/02/14 09:19:42;;;;;;;8.07;2.87;;;10.70;89.70;;;;;;5044377;28;20414;-70
2022/02/14 09:22:08;;;;;;;5.50;2.90;;;11.10;89.00;;;;;;5026407;28;20202;-70
2022/02/14 09:24:34;;;;;;;8.53;3.07;;;11.40;89.10;;;;;;5043470;28;20440;-70
2022/02/14 09:26:59;;;;;;;4.83;2.57;;;11.60;87.00;;;;;;5044385;28;20424;-69
2022/02/14 09:29:25;;;;;;;7.40;3.17;;;11.70;87.20;;;;;;5026121;28;20204;-70
2022/02/14 09:31:53;;;;;;;7.93;3.20;;;11.80;86.00;;;;;;5044656;28;20643;-70
2022/02/14 09:34:19;;;;;;;8.73;3.00;;;12.00;86.40;;;;;;5043148;28;20686;-70
2022/02/14 09:36:46;;;;;;;5.93;2.90;;;11.90;86.60;;;;;;5043931;28;20785;-70
2022/02/14 09:39:12;;;;;;;6.80;3.60;;;12.20;86.70;;;;;;5043619;28;20415;-70
2022/02/14 09:41:39;;;;;;;3.83;3.20;;;12.40;86.30;;;;;;5043431;28;20453;-70
2022/02/14 09:44:06;;;;;;;6.40;2.83;;;12.70;85.30;;;;;;5073986;22;20494;-69
2022/02/14 09:46:35;;;;;;;3.97;2.83;;;12.60;84.20;;;;;;5023526;28;20790;-71
2022/02/14 09:49:02;;;;;;;4.73;3.07;;;12.60;85.70;;;;;;5024537;28;20413;-71
2022/02/14 09:51:29;;;;;;;9.10;3.60;;;12.40;85.00;;;;;;5023709;28;20443;-70
2022/02/14 09:53:55;;;;;;;7.20;2.97;;;12.40;85.10;;;;;;5024701;28;20783;-70
2022/02/14 09:56:22;;;;;;;4.27;2.90;;;12.40;84.70;;;;;;5029757;28;20437;-70
2022/02/14 09:58:48;;;;;;;4.50;3.10;;;12.50;86.00;;;;;;5025337;28;20454;-71
2022/02/14 10:01:15;;;;;;;5.30;2.97;;;12.40;85.80;;;;;;5023445;28;20825;-70
2022/02/14 10:03:53;;;;;;;5.77;2.63;;;12.40;87.30;;;;;;5024392;28;20418;-69
2022/02/14 10:06:30;;;;;;;9.63;2.70;;;12.60;86.60;;;;;;5023730;28;20514;-70
2022/02/14 10:09:15;;;;;;;6.50;3.30;;;12.50;86.00;;;;;;5024520;28;20774;-73
2022/02/14 10:11:59;;;;;;;3.70;2.37;;;12.60;87.20;;;;;;5022853;28;20470;-71
2022/02/14 10:14:25;;;;;;;5.43;3.00;;;12.80;86.80;;;;;;5022488;28;21005;-71
2022/02/14 10:17:03;;;;;;;4.27;3.00;;;12.70;86.90;;;;;;5023824;28;20433;-70
2022/02/14 10:19:30;;;;;;;6.17;3.03;;;12.70;87.70;;;;;;5024054;28;20503;-70
2022/02/14 10:21:57;;;;;;;4.40;2.80;;;12.80;88.30;;;;;;5022787;28;20445;-69
2022/02/14 10:24:23;;;;;;;3.70;2.50;;;12.90;87.80;;;;;;5023150;28;20432;-71
2022/02/14 10:26:51;;;;;;;3.53;2.43;;;13.20;87.90;;;;;;5023172;28;20425;-70
2022/02/14 10:29:22;;;;;;;6.23;3.37;;;13.40;88.60;;;;;;5017055;28;20508;-71
2022/02/14 10:31:53;;;;;;;6.00;3.10;;;13.40;88.60;;;;;;5008819;28;20475;-70
2022/02/14 10:34:21;;;;;;;5.00;2.60;;;13.40;88.60;;;;;;5024334;28;20436;-70
2022/02/14 10:36:50;;;;;;;4.10;2.50;;;13.60;88.70;;;;;;5022642;28;20546;-71
2022/02/14 10:39:22;;;;;;;8.00;2.90;;;13.90;88.50;;;;;;5023903;28;20413;-70
2022/02/14 10:41:54;;;;;;;7.63;3.03;;;13.90;88.40;;;;;;5022821;28;20810;-70
2022/02/14 10:47:07;;;;;;;4.07;2.60;;;13.60;90.60;;;;;;5022702;28;21102;-71
2022/02/14 10:49:34;;;;;;;5.50;2.00;;;13.50;91.00;;;;;;5024052;28;20408;-70
2022/02/14 10:52:08;;;;;;;5.67;3.03;;;13.40;91.20;;;;;;5022951;28;20432;-71
2022/02/14 10:54:42;;;;;;;4.27;2.27;;;13.60;91.40;;;;;;5023692;28;20779;-70
2022/02/14 10:57:29;;;;;;;3.57;2.73;;;13.90;91.10;;;;;;5023100;28;20798;-71
2022/02/14 10:59:58;;;;;;;6.40;2.83;;;13.80;92.00;;;;;;5023961;28;20517;-71
2022/02/14 11:02:23;;;;;;;7.87;2.73;;;13.70;91.50;;;;;;5024046;28;20543;-72
2022/02/14 11:04:50;;;;;;;3.47;2.50;;;13.70;92.00;;;;;;5031407;28;20532;-70
2022/02/14 11:07:16;;;;;;;7.20;2.67;;;14.10;91.70;;;;;;5024799;28;20618;-70
2022/02/14 11:09:44;;;;;;;3.10;2.30;;;14.10;91.40;;;;;;5026094;28;20417;-72
2022/02/14 11:12:12;;;;;;;6.00;2.47;;;14.30;91.60;;;;;;5025044;28;20433;-72
2022/02/14 11:14:44;;;;;;;5.00;2.57;;;14.10;91.70;;;;;;5012954;28;20445;-70
2022/02/14 11:17:12;;;;;;;3.00;2.10;;;14.30;91.60;;;;;;5024876;28;20433;-72
2022/02/14 11:19:42;;;;;;;6.53;2.57;;;14.40;92.00;;;;;;5025526;28;20413;-69
2022/02/14 11:22:08;;;;;;;5.07;2.87;;;14.40;91.60;;;;;;5023803;28;20816;-71
2022/02/14 11:24:36;;;;;;;5.63;2.80;;;14.30;92.00;;;;;;5008333;28;20444;-70
2022/02/14 11:27:06;;;;;;;5.00;2.37;;;14.20;92.80;;;;;;5031182;28;20424;-71
2022/02/14 11:29:51;;;;;;;2.93;2.00;;;14.20;93.00;;;;;;5023907;28;20432;-71
2022/02/14 11:32:16;;;;;;;5.10;2.00;;;14.40;92.90;;;;;;5015257;28;20419;-71
2022/02/14 11:34:52;;;;;;;6.23;2.23;;;14.30;92.80;;;;;;5011166;28;20860;-70
2022/02/14 11:37:18;;;;;;;2.70;2.17;;;14.40;93.00;;;;;;5023022;28;20241;-71
2022/02/14 11:39:43;;;;;;;4.07;2.20;;;14.40;93.20;;;;;;5024233;28;20421;-72
2022/02/14 11:42:09;;;;;;;3.03;1.90;;;14.50;93.20;;;;;;5027167;28;20201;-73
2022/02/14 11:44:34;;;;;;;3.60;2.10;;;14.20;93.40;;;;;;5020297;28;20230;-72
2022/02/14 11:47:02;;;;;;;4.57;2.27;;;14.10;93.70;;;;;;5027098;28;21334;-70
2022/02/14 11:49:41;;;;;;;6.80;2.50;;;14.20;93.70;;;;;;5026988;28;20227;-70
2022/02/14 11:52:28;;;;;;;4.73;2.07;;;14.20;94.30;;;;;;5026467;28;20966;-71
2022/02/14 11:54:55;;;;;;;2.63;1.97;;;14.10;94.20;;;;;;5026800;28;21007;-73
2022/02/14 11:57:31;;;;;;;2.80;1.90;;;14.10;94.40;;;;;;5026968;28;20424;-71
2022/02/14 12:00:12;;;;;;;3.13;2.00;;;14.00;94.10;;;;;;5026870;28;20495;-71
2022/02/14 12:02:38;;;;;;;4.37;2.40;;;13.80;94.50;;;;;;5026478;28;20445;-71
2022/02/14 12:05:05;;;;;;;4.63;2.27;;;13.50;94.60;;;;;;5026601;28;20433;-72
2022/02/14 12:07:36;;;;;;;3.80;1.70;;;13.50;95.00;;;;;;5026745;28;20453;-70
2022/02/14 12:10:26;;;;;;;3.90;2.10;;;13.50;94.70;;;;;;5026741;28;20409;-71
2022/02/14 12:12:54;;;;;;;5.07;2.13;;;13.70;94.80;;;;;;5026132;28;20429;-73
2022/02/14 12:20:57;;;;;;;4.87;1.83;;;13.80;94.50;;;;;;5026596;28;20822;-68
2022/02/14 12:23:30;;;;;;;3.70;1.93;;;14.00;94.90;;;;;;5025518;28;20446;-73
2022/02/14 12:25:56;;;;;;;3.27;1.80;;;13.90;95.20;;;;;;5026166;28;20428;-72
2022/02/14 12:28:23;;;;;;;5.50;2.30;;;13.90;95.40;;;;;;5009085;28;20958;-70
2022/02/14 12:30:49;;;;;;;2.80;2.03;;;13.80;95.60;;;;;;5025712;28;20421;-71
2022/02/14 12:33:16;;;;;;;4.63;2.20;;;13.60;96.00;;;;;;5025420;28;20468;-73
2022/02/14 12:35:47;;;;;;;2.63;1.50;;;13.70;96.20;;;;;;5026137;28;20446;-70
2022/02/14 12:38:14;;;;;;;2.53;1.90;;;13.70;96.30;;;;;;5026011;28;20837;-72
2022/02/14 12:40:46;;;;;;;2.97;1.80;;;13.80;96.40;;;;;;5026363;28;20445;-71
2022/02/14 12:43:12;;;;;;;5.37;1.90;;;13.90;96.20;;;;;;5026075;28;20488;-70
2022/02/14 12:45:37;;;;;;;4.10;2.13;;;14.10;96.20;;;;;;5026707;28;20490;-71
2022/02/14 12:48:03;;;;;;;5.33;1.73;;;14.20;96.20;;;;;;5025763;28;20184;-70
2022/02/14 12:50:36;;;;;;;2.53;1.60;;;14.50;96.10;;;;;;5024615;28;20258;-74
2022/02/14 12:53:09;;;;;;;5.10;2.00;;;14.40;95.90;;;;;;5017198;28;20484;-70
2022/02/14 12:55:35;;;;;;;2.80;1.77;;;14.80;95.60;;;;;;5025555;28;20434;-72
2022/02/14 12:58:00;;;;;;;8.00;2.30;;;15.20;94.90;;;;;;5025619;28;20419;-72
2022/02/14 13:00:42;;;;;;;2.33;1.60;;;15.30;94.80;;;;;;5024959;28;20833;-72